Time;durP1;ratioP1;P1;durP2;ratioP2;P2;SDS_P1;SDS_P2;PMS_P1;PMS_P2;Temp;Humidity;BMP_temperature;BMP_pressure;BME280_temperature;BME280_humidity;BME280_pressure;Samples;Min_cycle;Max_cycle;Signal;HPM_P1;HPM_P2
2021/05/31 00:01:52;;;;;;;3.67;2.60;;;20.80;50.80;;;;;;4963779;28;20472;-84
2021/05/31 00:04:18;;;;;;;3.20;2.30;;;20.70;50.10;;;;;;4943282;28;20035;-84
2021/05/31 00:06:50;;;;;;;4.65;2.40;;;20.70;50.20;;;;;;4953919;28;20027;-83
2021/05/31 00:09:16;;;;;;;3.53;2.65;;;20.70;50.30;;;;;;4972384;28;20086;-81
2021/05/31 00:11:43;;;;;;;3.92;2.55;;;20.60;50.30;;;;;;4932184;28;20042;-82
2021/05/31 00:14:08;;;;;;;3.72;2.40;;;20.60;50.30;;;;;;4940487;28;20032;-83
2021/05/31 00:16:36;;;;;;;3.67;2.47;;;20.50;50.30;;;;;;4957241;28;20027;-83
2021/05/31 00:19:03;;;;;;;3.78;2.53;;;20.50;50.50;;;;;;4953730;28;20343;-83
2021/05/31 00:21:30;;;;;;;4.43;2.78;;;20.50;50.50;;;;;;4963238;28;20178;-81
2021/05/31 00:23:55;;;;;;;4.35;2.80;;;20.50;50.50;;;;;;4936014;29;20106;-82
2021/05/31 00:26:22;;;;;;;3.42;2.67;;;20.40;50.50;;;;;;4922399;29;20126;-84
2021/05/31 00:28:47;;;;;;;4.75;2.92;;;20.40;50.60;;;;;;4906067;29;20472;-83
2021/05/31 00:31:14;;;;;;;3.75;2.88;;;20.30;50.60;;;;;;4902707;29;20197;-83
2021/05/31 00:33:40;;;;;;;4.15;2.90;;;20.30;50.70;;;;;;4953344;28;20046;-84
2021/05/31 00:36:07;;;;;;;4.05;2.90;;;20.30;50.80;;;;;;4933465;29;20038;-82
2021/05/31 00:38:34;;;;;;;4.95;2.97;;;20.30;50.90;;;;;;4919678;29;20032;-81
2021/05/31 00:41:01;;;;;;;4.00;2.80;;;20.20;50.90;;;;;;4955012;28;20510;-84
2021/05/31 00:43:33;;;;;;;3.92;2.70;;;20.20;50.90;;;;;;4951086;29;20074;-84
2021/05/31 00:46:07;;;;;;;4.35;2.72;;;20.20;51.00;;;;;;4935536;29;20039;-83
2021/05/31 00:48:34;;;;;;;4.53;2.92;;;20.10;51.00;;;;;;4921505;29;20027;-84
2021/05/31 00:51:03;;;;;;;3.58;2.70;;;20.10;51.10;;;;;;4915397;29;20027;-83
2021/05/31 00:53:29;;;;;;;3.85;3.00;;;20.10;51.10;;;;;;4951710;29;20094;-83
2021/05/31 00:55:56;;;;;;;4.00;2.65;;;20.00;51.10;;;;;;4934589;29;20031;-83
2021/05/31 00:58:28;;;;;;;4.30;2.88;;;20.00;51.20;;;;;;4917619;29;20061;-84
2021/05/31 01:00:56;;;;;;;4.25;3.00;;;20.00;51.30;;;;;;4944073;29;20034;-84
2021/05/31 01:03:22;;;;;;;4.15;2.88;;;19.90;51.30;;;;;;4920350;29;20024;-84
2021/05/31 01:05:49;;;;;;;5.00;3.42;;;19.90;51.30;;;;;;4918895;29;20032;-84
2021/05/31 01:08:20;;;;;;;4.45;2.97;;;19.90;51.50;;;;;;4906659;29;20062;-83
2021/05/31 01:10:55;;;;;;;4.47;2.85;;;19.80;51.50;;;;;;4930981;29;20042;-82
2021/05/31 01:13:45;;;;;;;4.55;2.97;;;19.80;51.60;;;;;;4946500;29;20035;-83
2021/05/31 01:16:33;;;;;;;4.40;2.90;;;19.80;51.60;;;;;;4931946;29;20548;-84
2021/05/31 01:19:03;;;;;;;4.43;3.03;;;19.70;51.70;;;;;;4929556;29;20167;-81
2021/05/31 01:22:00;;;;;;;5.55;3.13;;;19.70;51.70;;;;;;4947068;29;20133;-82
2021/05/31 01:24:50;;;;;;;5.30;3.30;;;19.70;51.90;;;;;;4940203;28;20289;-83
2021/05/31 01:27:19;;;;;;;5.18;2.90;;;19.60;51.90;;;;;;4939014;28;20035;-83
2021/05/31 01:29:48;;;;;;;4.32;2.88;;;19.60;51.90;;;;;;4912034;29;20480;-81
2021/05/31 01:32:15;;;;;;;4.10;3.30;;;19.60;52.00;;;;;;4941074;28;20464;-83
2021/05/31 01:34:42;;;;;;;4.72;3.28;;;19.50;52.00;;;;;;4939649;29;20543;-84
2021/05/31 01:37:15;;;;;;;4.85;3.42;;;19.50;52.10;;;;;;4915909;28;20023;-82
2021/05/31 01:39:45;;;;;;;4.68;3.28;;;19.40;52.10;;;;;;4949603;28;20023;-82
2021/05/31 01:42:11;;;;;;;4.60;3.63;;;19.40;52.10;;;;;;4951100;28;20491;-82
2021/05/31 01:44:38;;;;;;;4.72;3.50;;;19.40;52.20;;;;;;4940321;28;20055;-82
2021/05/31 01:47:04;;;;;;;4.47;3.22;;;19.40;52.30;;;;;;4929857;28;20520;-82
2021/05/31 01:49:31;;;;;;;4.20;3.17;;;19.40;52.30;;;;;;4928005;28;20035;-82
2021/05/31 01:51:59;;;;;;;5.28;3.38;;;19.30;52.40;;;;;;4943210;28;20155;-82
2021/05/31 01:54:26;;;;;;;5.03;3.25;;;19.30;52.50;;;;;;4927395;28;20189;-84
2021/05/31 01:56:52;;;;;;;4.47;3.25;;;19.30;52.60;;;;;;4957423;28;20020;-81
2021/05/31 01:59:20;;;;;;;4.60;3.67;;;19.20;53.20;;;;;;4958221;28;20055;-82
2021/05/31 02:01:48;;;;;;;5.68;3.53;;;19.20;52.70;;;;;;4934151;28;20039;-81
2021/05/31 02:04:15;;;;;;;4.90;3.80;;;19.20;52.70;;;;;;4935478;28;20583;-83
2021/05/31 02:06:41;;;;;;;5.47;3.42;;;19.20;52.70;;;;;;4933222;28;20041;-83
2021/05/31 02:09:07;;;;;;;5.03;3.90;;;19.20;52.80;;;;;;4950766;28;20027;-81
2021/05/31 02:11:54;;;;;;;5.20;4.00;;;19.10;52.80;;;;;;4928919;28;20031;-82
2021/05/31 02:14:42;;;;;;;4.45;3.22;;;19.10;53.00;;;;;;4955042;28;20070;-82
2021/05/31 02:17:23;;;;;;;5.15;3.53;;;19.00;52.90;;;;;;4934934;29;20031;-83
2021/05/31 02:19:53;;;;;;;4.75;3.53;;;19.00;52.90;;;;;;4939550;28;20031;-83
2021/05/31 02:22:20;;;;;;;4.55;3.53;;;19.00;53.00;;;;;;4952886;28;20019;-84
2021/05/31 02:24:48;;;;;;;5.63;3.95;;;18.90;53.00;;;;;;4938130;28;20059;-84
2021/05/31 02:27:15;;;;;;;4.97;3.83;;;18.90;53.10;;;;;;4931092;28;20027;-83
2021/05/31 02:29:42;;;;;;;5.82;4.15;;;18.90;53.20;;;;;;4958736;28;20374;-83
2021/05/31 02:32:07;;;;;;;4.25;3.58;;;18.80;53.20;;;;;;4963433;28;20101;-83
2021/05/31 02:34:33;;;;;;;5.60;4.10;;;18.80;53.20;;;;;;4971322;28;20074;-83
2021/05/31 02:37:00;;;;;;;6.20;4.10;;;18.80;53.30;;;;;;4963915;28;20171;-83
2021/05/31 02:39:26;;;;;;;5.68;4.05;;;18.80;53.30;;;;;;4969716;28;20373;-83
2021/05/31 02:41:52;;;;;;;5.30;3.85;;;18.70;53.30;;;;;;4982770;28;20131;-83
2021/05/31 02:44:18;;;;;;;5.57;4.15;;;18.70;53.30;;;;;;4936197;28;20399;-83
2021/05/31 02:46:44;;;;;;;5.90;4.35;;;18.70;53.40;;;;;;4983763;28;20027;-82
2021/05/31 02:49:10;;;;;;;5.93;4.38;;;18.70;53.40;;;;;;4982732;28;20484;-82
2021/05/31 02:51:38;;;;;;;6.10;4.13;;;18.60;53.50;;;;;;4969346;28;20034;-82
2021/05/31 02:54:04;;;;;;;5.75;4.18;;;18.60;53.50;;;;;;4955858;28;20054;-83
2021/05/31 02:56:30;;;;;;;5.68;4.15;;;18.60;53.60;;;;;;4973127;28;20065;-81
2021/05/31 02:58:56;;;;;;;6.10;4.05;;;18.60;53.60;;;;;;4960466;28;20452;-83
2021/05/31 03:01:21;;;;;;;6.15;4.03;;;18.50;53.60;;;;;;4920738;28;20514;-84
2021/05/31 03:03:47;;;;;;;5.45;3.92;;;18.50;53.60;;;;;;4971309;28;20039;-83
2021/05/31 03:06:13;;;;;;;5.43;4.13;;;18.50;53.70;;;;;;4969703;28;20031;-83
2021/05/31 03:08:39;;;;;;;5.72;3.90;;;18.40;53.70;;;;;;4972948;28;20031;-83
2021/05/31 03:11:04;;;;;;;6.47;4.40;;;18.40;53.70;;;;;;4972195;28;20037;-83
2021/05/31 03:13:30;;;;;;;5.63;4.20;;;18.40;53.70;;;;;;4936304;28;20054;-82
2021/05/31 03:15:56;;;;;;;6.50;4.63;;;18.30;53.80;;;;;;4947173;28;20420;-82
2021/05/31 03:18:22;;;;;;;5.60;4.32;;;18.40;53.90;;;;;;4965698;28;20031;-83
2021/05/31 03:20:48;;;;;;;6.43;4.65;;;18.30;53.80;;;;;;4966863;28;20019;-83
2021/05/31 03:23:14;;;;;;;6.43;4.65;;;18.30;53.90;;;;;;4947510;28;20432;-82
2021/05/31 03:25:40;;;;;;;5.57;4.00;;;18.30;54.00;;;;;;4980406;28;20059;-83
2021/05/31 03:28:06;;;;;;;5.70;4.43;;;18.20;54.00;;;;;;4965976;28;20031;-83
2021/05/31 03:30:32;;;;;;;5.43;4.18;;;18.20;54.00;;;;;;4954118;28;20110;-83
2021/05/31 03:32:58;;;;;;;5.85;4.53;;;18.20;54.10;;;;;;4984779;28;20043;-83
2021/05/31 03:35:25;;;;;;;5.82;4.32;;;18.10;54.10;;;;;;4950962;28;20023;-82
2021/05/31 03:37:51;;;;;;;6.63;4.65;;;18.10;54.10;;;;;;4972593;28;20023;-82
2021/05/31 03:40:21;;;;;;;6.40;4.75;;;18.10;54.20;;;;;;4968687;28;20035;-82
2021/05/31 03:42:51;;;;;;;5.57;4.15;;;18.10;54.20;;;;;;4949932;28;20141;-83
2021/05/31 03:45:18;;;;;;;6.32;4.53;;;18.00;54.20;;;;;;4954237;28;20070;-83
2021/05/31 03:47:44;;;;;;;5.72;4.45;;;18.00;54.30;;;;;;4967004;28;20035;-81
2021/05/31 03:50:10;;;;;;;6.07;4.55;;;18.00;54.30;;;;;;4972684;28;20062;-83
2021/05/31 03:52:37;;;;;;;6.32;4.30;;;18.00;54.40;;;;;;4982536;28;20039;-82
2021/05/31 03:55:07;;;;;;;6.00;4.45;;;17.90;54.50;;;;;;4967462;28;20468;-83
2021/05/31 03:57:35;;;;;;;6.00;4.43;;;17.90;54.50;;;;;;4977699;28;20065;-82
2021/05/31 04:00:01;;;;;;;6.18;4.35;;;17.90;54.40;;;;;;4936645;28;20031;-81
2021/05/31 04:02:27;;;;;;;6.45;4.45;;;17.80;54.40;;;;;;4967824;28;20034;-82
2021/05/31 04:04:54;;;;;;;6.45;4.45;;;17.90;54.50;;;;;;4970420;28;20093;-83
2021/05/31 04:12:51;;;;;;;5.80;4.47;;;17.80;54.60;;;;;;4951104;28;20064;-82
2021/05/31 04:15:17;;;;;;;5.07;4.07;;;17.70;54.50;;;;;;4920476;28;20067;-82
2021/05/31 04:17:42;;;;;;;5.47;4.10;;;17.70;54.60;;;;;;4956909;28;20039;-82
2021/05/31 04:20:09;;;;;;;6.75;4.70;;;17.70;54.70;;;;;;4927494;28;20429;-81
2021/05/31 04:22:35;;;;;;;6.93;5.20;;;17.60;54.70;;;;;;4942188;28;20043;-82
2021/05/31 04:25:01;;;;;;;6.03;4.35;;;17.70;54.80;;;;;;4967747;28;20069;-82
2021/05/31 04:27:27;;;;;;;5.60;4.18;;;17.60;54.80;;;;;;4938667;28;20480;-82
2021/05/31 04:29:53;;;;;;;5.47;4.30;;;17.60;54.80;;;;;;4917675;28;20058;-82
2021/05/31 04:32:18;;;;;;;6.15;4.65;;;17.60;54.90;;;;;;4913047;28;20030;-82
2021/05/31 04:34:45;;;;;;;6.38;4.20;;;17.60;54.90;;;;;;4934712;28;20664;-82
2021/05/31 04:37:11;;;;;;;6.15;4.88;;;17.60;54.90;;;;;;4948847;28;20083;-81
2021/05/31 04:39:37;;;;;;;5.75;4.28;;;17.60;55.00;;;;;;4961359;28;20082;-80
2021/05/31 04:42:06;;;;;;;6.95;4.90;;;17.50;55.00;;;;;;4936083;28;20034;-82
2021/05/31 04:44:33;;;;;;;8.07;5.55;;;17.50;55.00;;;;;;4934684;28;20027;-82
2021/05/31 04:46:58;;;;;;;7.32;5.22;;;17.50;55.00;;;;;;4971637;28;20031;-83
2021/05/31 04:49:24;;;;;;;5.82;4.45;;;17.50;55.10;;;;;;4933552;29;20034;-83
2021/05/31 04:51:51;;;;;;;5.75;4.22;;;17.50;55.10;;;;;;4952662;28;20038;-83
2021/05/31 04:54:17;;;;;;;6.97;5.15;;;17.40;55.10;;;;;;4940192;28;20046;-84
2021/05/31 04:56:42;;;;;;;7.07;5.38;;;17.40;55.10;;;;;;4973768;28;20039;-83
2021/05/31 04:59:08;;;;;;;6.60;4.93;;;17.50;55.20;;;;;;4957190;28;20110;-81
2021/05/31 05:01:34;;;;;;;7.22;5.28;;;17.40;55.20;;;;;;4935588;28;20058;-81
2021/05/31 05:04:01;;;;;;;7.00;5.07;;;17.40;55.20;;;;;;4934921;28;20045;-82
2021/05/31 05:06:27;;;;;;;6.55;5.15;;;17.40;55.30;;;;;;4956270;28;20034;-82
2021/05/31 05:08:54;;;;;;;6.95;5.13;;;17.40;55.30;;;;;;4953188;28;20041;-82
2021/05/31 05:11:23;;;;;;;5.82;4.65;;;17.40;55.40;;;;;;4935732;28;20038;-82
2021/05/31 05:13:52;;;;;;;6.47;5.13;;;17.40;55.40;;;;;;4923513;28;20395;-81
2021/05/31 05:16:18;;;;;;;6.90;5.15;;;17.40;55.40;;;;;;4973253;28;20023;-82
2021/05/31 05:18:45;;;;;;;6.10;4.85;;;17.30;55.40;;;;;;4954822;28;20035;-82
2021/05/31 05:21:11;;;;;;;6.03;4.85;;;17.30;55.40;;;;;;4965692;28;20023;-82
2021/05/31 05:23:37;;;;;;;6.70;5.38;;;17.30;55.40;;;;;;4960448;28;20043;-83
2021/05/31 05:26:03;;;;;;;5.90;5.07;;;17.30;55.50;;;;;;4932475;29;20062;-82
2021/05/31 05:28:29;;;;;;;6.68;5.30;;;17.30;55.50;;;;;;4927616;29;20131;-82
2021/05/31 05:30:55;;;;;;;6.25;4.78;;;17.30;55.50;;;;;;4933000;29;20110;-83
2021/05/31 05:33:21;;;;;;;7.00;5.40;;;17.30;55.50;;;;;;4920724;29;20039;-81
2021/05/31 05:35:58;;;;;;;6.55;5.20;;;17.30;55.50;;;;;;4937266;28;20113;-83
2021/05/31 05:41:15;;;;;;;6.95;5.53;;;17.30;55.60;;;;;;4955225;28;20059;-82
2021/05/31 05:48:49;;;;;;;7.30;5.65;;;17.30;55.70;;;;;;4949677;28;20074;-82
2021/05/31 05:51:15;;;;;;;6.72;5.22;;;17.30;55.70;;;;;;4937948;29;20042;-82
2021/05/31 05:53:42;;;;;;;6.85;5.07;;;17.20;55.60;;;;;;4934983;29;20504;-83
2021/05/31 05:56:17;;;;;;;7.45;5.18;;;17.30;55.80;;;;;;4946603;28;20542;-82
2021/05/31 05:58:43;;;;;;;6.57;4.90;;;17.30;55.80;;;;;;4946712;28;20582;-83
2021/05/31 06:01:10;;;;;;;7.03;5.07;;;17.20;55.70;;;;;;4947242;28;20051;-84
2021/05/31 06:03:36;;;;;;;7.65;5.70;;;17.30;55.80;;;;;;4942828;28;20042;-83
2021/05/31 06:06:04;;;;;;;6.45;4.93;;;17.20;55.70;;;;;;4909670;28;20027;-83
2021/05/31 06:08:30;;;;;;;7.53;6.20;;;17.30;55.80;;;;;;4947131;28;20098;-84
2021/05/31 06:10:57;;;;;;;8.00;5.30;;;17.30;55.90;;;;;;4950663;28;20062;-84
2021/05/31 06:13:24;;;;;;;7.78;5.65;;;17.30;55.90;;;;;;4931530;29;20032;-87
2021/05/31 06:15:51;;;;;;;7.20;5.35;;;17.30;55.90;;;;;;4947441;28;20063;-85
2021/05/31 06:18:17;;;;;;;6.80;5.20;;;17.30;56.00;;;;;;4916209;29;20087;-92
2021/05/31 06:20:43;;;;;;;7.47;5.57;;;17.30;56.00;;;;;;4938412;29;20046;-88
2021/05/31 06:23:09;;;;;;;8.02;5.78;;;17.30;56.00;;;;;;4951521;28;20104;-92
2021/05/31 06:25:36;;;;;;;7.55;5.53;;;17.30;56.00;;;;;;4963002;28;20484;-92
2021/05/31 06:28:04;;;;;;;7.13;5.43;;;17.30;56.00;;;;;;4951414;28;20026;-87
2021/05/31 06:30:30;;;;;;;7.97;5.97;;;17.30;56.10;;;;;;4953586;28;20093;-90
2021/05/31 06:32:56;;;;;;;7.95;5.53;;;17.30;56.00;;;;;;4962889;28;20047;-87
2021/05/31 06:35:24;;;;;;;7.40;5.85;;;17.30;56.10;;;;;;4987843;28;20106;-87
2021/05/31 06:37:50;;;;;;;6.57;5.43;;;17.30;56.10;;;;;;4940051;28;20103;-85
2021/05/31 06:40:16;;;;;;;7.28;5.40;;;17.30;56.10;;;;;;4980324;28;20062;-88
2021/05/31 06:42:44;;;;;;;7.47;6.22;;;17.40;56.30;;;;;;4954481;28;20100;-86
2021/05/31 06:45:16;;;;;;;7.93;5.43;;;17.40;56.30;;;;;;4965090;28;20019;-87
2021/05/31 06:47:42;;;;;;;7.65;6.00;;;17.40;56.30;;;;;;4972682;28;20459;-87
2021/05/31 06:50:09;;;;;;;7.40;5.78;;;17.40;56.30;;;;;;4987159;28;20027;-85
2021/05/31 06:52:35;;;;;;;8.50;6.22;;;17.40;56.30;;;;;;4956073;28;20416;-87
2021/05/31 06:55:05;;;;;;;7.22;5.90;;;17.40;56.30;;;;;;4969054;28;20066;-88
2021/05/31 06:57:31;;;;;;;8.20;5.57;;;17.40;56.40;;;;;;4971848;28;20084;-84
2021/05/31 06:59:56;;;;;;;6.93;5.20;;;17.40;56.40;;;;;;4935883;28;20458;-88
2021/05/31 07:02:22;;;;;;;7.57;6.32;;;17.40;56.40;;;;;;4967023;28;20090;-85
2021/05/31 07:04:48;;;;;;;7.95;5.57;;;17.40;56.40;;;;;;4982786;28;20378;-88
2021/05/31 07:07:19;;;;;;;7.75;6.20;;;17.50;56.50;;;;;;4940985;28;20384;-91
2021/05/31 07:09:45;;;;;;;8.65;5.88;;;17.40;56.40;;;;;;4968512;28;20047;-91
2021/05/31 07:12:11;;;;;;;7.72;5.88;;;17.50;56.40;;;;;;4982587;28;20030;-90
2021/05/31 07:14:39;;;;;;;8.00;6.30;;;17.50;56.50;;;;;;4966587;28;20031;-90
2021/05/31 07:17:06;;;;;;;6.63;5.90;;;17.50;56.50;;;;;;4979428;28;20027;-90
2021/05/31 07:19:32;;;;;;;8.48;6.60;;;17.50;56.60;;;;;;4956234;28;20042;-92
2021/05/31 07:21:59;;;;;;;7.50;5.60;;;17.50;56.60;;;;;;4962585;28;20389;-91
2021/05/31 07:24:25;;;;;;;7.18;5.78;;;17.60;56.60;;;;;;4965251;28;20134;-91
2021/05/31 07:26:50;;;;;;;7.93;6.05;;;17.60;56.60;;;;;;4978982;28;20334;-94
2021/05/31 07:29:16;;;;;;;7.47;5.95;;;17.60;56.60;;;;;;4963337;28;20035;-89
2021/05/31 07:31:42;;;;;;;8.60;5.78;;;17.60;56.60;;;;;;4979722;28;20031;-94
2021/05/31 07:34:08;;;;;;;7.32;6.22;;;17.70;56.60;;;;;;4976246;28;20039;-93
2021/05/31 07:36:33;;;;;;;9.57;6.25;;;17.70;56.50;;;;;;4983401;28;20062;-87
2021/05/31 07:38:59;;;;;;;7.13;5.65;;;17.80;56.50;;;;;;4968503;28;20081;-93
2021/05/31 07:41:25;;;;;;;7.68;5.40;;;17.80;56.50;;;;;;4958734;28;20122;-91
2021/05/31 07:43:51;;;;;;;7.03;5.43;;;17.90;56.60;;;;;;4977639;28;20459;-90
2021/05/31 07:46:17;;;;;;;7.05;5.68;;;17.90;56.50;;;;;;4935646;28;20114;-89
2021/05/31 07:48:43;;;;;;;9.13;5.60;;;18.00;56.50;;;;;;4969022;28;20035;-91
2021/05/31 07:51:17;;;;;;;7.30;5.70;;;18.00;56.40;;;;;;4944085;28;20031;-90
2021/05/31 07:53:51;;;;;;;8.80;5.68;;;18.10;56.40;;;;;;4969190;28;20038;-90
2021/05/31 07:56:19;;;;;;;7.10;5.50;;;18.20;56.40;;;;;;4948057;28;20031;-90
2021/05/31 07:58:45;;;;;;;6.95;5.25;;;18.20;56.20;;;;;;4977007;28;20039;-92
2021/05/31 08:01:12;;;;;;;7.63;5.93;;;18.30;56.30;;;;;;4979533;28;20038;-91
2021/05/31 08:03:41;;;;;;;7.78;5.95;;;18.30;56.20;;;;;;4975473;28;20038;-91
2021/05/31 08:06:08;;;;;;;7.07;5.47;;;18.40;56.20;;;;;;4970016;28;20027;-91
2021/05/31 08:08:34;;;;;;;6.75;5.90;;;18.50;56.20;;;;;;4956716;28;20035;-93
2021/05/31 08:11:01;;;;;;;7.05;5.70;;;18.50;56.10;;;;;;4972864;28;20034;-93
2021/05/31 08:13:27;;;;;;;6.90;5.63;;;18.60;56.10;;;;;;4989975;28;20501;-95
2021/05/31 08:15:54;;;;;;;8.18;5.90;;;18.70;56.10;;;;;;4955859;28;20074;-93
2021/05/31 08:18:20;;;;;;;7.30;5.65;;;18.80;56.10;;;;;;4985751;28;20023;-89
2021/05/31 08:20:47;;;;;;;7.95;5.70;;;18.90;56.00;;;;;;4971900;28;20460;-90
2021/05/31 08:23:14;;;;;;;6.60;5.22;;;18.90;55.90;;;;;;4943554;28;20062;-91
2021/05/31 08:25:41;;;;;;;7.07;5.45;;;19.00;55.90;;;;;;4980834;28;20225;-90
2021/05/31 08:28:07;;;;;;;7.13;5.18;;;19.10;55.90;;;;;;4971946;28;20043;-87
2021/05/31 08:30:34;;;;;;;7.95;5.15;;;19.20;55.90;;;;;;4967133;28;20027;-90
2021/05/31 08:33:02;;;;;;;6.25;4.68;;;19.30;55.90;;;;;;4970291;28;20531;-90
2021/05/31 08:35:28;;;;;;;6.85;5.28;;;19.40;55.90;;;;;;4969165;28;20142;-87
2021/05/31 08:37:54;;;;;;;6.65;5.25;;;19.50;55.80;;;;;;4969637;28;20520;-86
2021/05/31 08:40:20;;;;;;;6.35;4.72;;;19.50;55.70;;;;;;4950016;28;20035;-87
2021/05/31 08:42:46;;;;;;;7.10;5.28;;;19.70;55.80;;;;;;4967062;28;20045;-87
2021/05/31 08:45:15;;;;;;;6.47;5.18;;;19.80;56.00;;;;;;4954050;28;20061;-88
2021/05/31 08:47:47;;;;;;;6.15;4.82;;;19.80;56.30;;;;;;4961331;28;20019;-88
2021/05/31 08:50:24;;;;;;;7.07;4.93;;;19.90;55.60;;;;;;4976584;28;20035;-88
2021/05/31 08:52:51;;;;;;;6.32;4.75;;;20.00;55.60;;;;;;4989240;28;20050;-88
2021/05/31 08:55:20;;;;;;;7.60;5.43;;;20.10;55.50;;;;;;4983119;28;20023;-93
2021/05/31 08:57:47;;;;;;;6.53;5.20;;;20.20;56.10;;;;;;4966697;28;20491;-88
2021/05/31 09:00:15;;;;;;;5.47;4.10;;;20.30;56.00;;;;;;4961710;28;20035;-87
2021/05/31 09:02:41;;;;;;;6.90;4.57;;;20.40;55.30;;;;;;4990340;28;20383;-85
2021/05/31 09:05:09;;;;;;;5.97;4.53;;;20.50;55.30;;;;;;4963199;28;20050;-80
2021/05/31 09:07:36;;;;;;;5.35;4.15;;;20.60;55.20;;;;;;4982673;28;20038;-81
2021/05/31 09:10:05;;;;;;;4.85;3.85;;;20.70;55.10;;;;;;4965667;28;20102;-79
2021/05/31 09:12:35;;;;;;;5.82;3.95;;;20.80;55.10;;;;;;4977087;28;20035;-81
2021/05/31 09:15:11;;;;;;;5.30;4.15;;;20.90;55.00;;;;;;4966769;28;20031;-81
2021/05/31 09:17:41;;;;;;;5.32;3.90;;;21.00;54.90;;;;;;4986807;28;20022;-79
2021/05/31 09:20:09;;;;;;;5.43;3.85;;;21.10;54.80;;;;;;4973071;28;20357;-80
2021/05/31 09:22:50;;;;;;;5.25;4.03;;;21.20;54.80;;;;;;4973891;28;20030;-80
2021/05/31 09:25:28;;;;;;;4.90;3.72;;;21.30;54.70;;;;;;4965685;28;20039;-79
2021/05/31 09:27:54;;;;;;;4.80;3.33;;;21.40;54.60;;;;;;4978354;28;20264;-80
2021/05/31 09:30:35;;;;;;;4.25;3.53;;;21.50;54.50;;;;;;4964340;28;20051;-80
2021/05/31 09:33:02;;;;;;;5.25;3.58;;;21.60;54.50;;;;;;4966111;28;20081;-79
2021/05/31 09:35:28;;;;;;;4.35;3.42;;;21.70;54.40;;;;;;4978846;28;20472;-80
2021/05/31 09:37:54;;;;;;;4.40;3.20;;;21.80;54.40;;;;;;4977206;28;20165;-80
2021/05/31 09:40:26;;;;;;;4.78;3.33;;;21.90;54.30;;;;;;4968013;28;20130;-80
2021/05/31 09:43:05;;;;;;;4.78;3.20;;;22.00;54.20;;;;;;4951670;28;20081;-80
2021/05/31 09:45:31;;;;;;;4.95;3.05;;;22.10;54.10;;;;;;4984256;28;20039;-81
2021/05/31 09:48:02;;;;;;;4.50;3.35;;;22.20;54.00;;;;;;4974503;28;20131;-81
2021/05/31 09:50:31;;;;;;;5.38;3.25;;;22.30;53.90;;;;;;4968063;28;20540;-80
2021/05/31 09:53:14;;;;;;;3.65;3.13;;;22.40;53.80;;;;;;4961792;28;20070;-80
2021/05/31 09:55:44;;;;;;;3.38;2.83;;;22.50;53.80;;;;;;4971262;28;20070;-80
2021/05/31 09:58:12;;;;;;;4.05;3.00;;;22.60;53.70;;;;;;4983836;28;20023;-81
2021/05/31 10:00:39;;;;;;;6.18;2.80;;;22.60;53.50;;;;;;4972996;28;20502;-81
2021/05/31 10:03:19;;;;;;;3.72;2.95;;;22.80;53.40;;;;;;4970576;28;20161;-82
2021/05/31 10:05:58;;;;;;;3.67;2.72;;;22.80;53.40;;;;;;4970911;28;20019;-81
2021/05/31 10:10:53;;;;;;;2.90;2.47;;;23.10;53.20;;;;;;4973019;28;20081;-81
2021/05/31 10:13:19;;;;;;;3.80;2.47;;;23.10;53.10;;;;;;4959457;28;20499;-82
2021/05/31 10:15:46;;;;;;;4.00;2.70;;;23.20;53.00;;;;;;4977022;28;20039;-81
2021/05/31 10:18:16;;;;;;;3.78;2.85;;;23.30;52.90;;;;;;4952942;28;20154;-81
2021/05/31 10:20:42;;;;;;;3.00;2.25;;;23.40;53.40;;;;;;4977235;28;20022;-81
2021/05/31 10:23:12;;;;;;;3.40;2.70;;;23.50;52.80;;;;;;4959638;28;20062;-82
2021/05/31 10:25:47;;;;;;;3.25;2.08;;;23.60;52.70;;;;;;4997099;28;20030;-83
2021/05/31 10:28:27;;;;;;;3.80;2.58;;;23.60;52.50;;;;;;4956458;28;20042;-81
2021/05/31 10:31:02;;;;;;;3.50;2.33;;;23.70;52.40;;;;;;4982652;28;20441;-81
2021/05/31 10:33:30;;;;;;;2.85;2.28;;;23.80;52.30;;;;;;4966136;28;20034;-82
2021/05/31 10:36:07;;;;;;;3.58;2.50;;;23.90;52.20;;;;;;4977774;28;20061;-80
2021/05/31 10:38:36;;;;;;;3.53;2.33;;;24.00;52.10;;;;;;4964584;28;20038;-81
2021/05/31 10:41:11;;;;;;;3.50;2.35;;;24.10;52.00;;;;;;4988761;28;20045;-80
2021/05/31 10:43:46;;;;;;;2.22;1.95;;;24.20;51.90;;;;;;4986614;28;20110;-81
2021/05/31 10:46:18;;;;;;;4.28;2.42;;;24.20;51.80;;;;;;4968101;28;20026;-81
2021/05/31 10:48:51;;;;;;;4.18;2.33;;;24.30;51.70;;;;;;4970354;28;20026;-81
2021/05/31 10:51:21;;;;;;;3.15;2.40;;;24.40;51.60;;;;;;4985122;28;20133;-81
2021/05/31 10:53:47;;;;;;;3.33;2.00;;;24.50;51.60;;;;;;4968304;28;20114;-81
2021/05/31 10:56:27;;;;;;;2.75;1.98;;;24.60;51.60;;;;;;4967275;28;20050;-80
2021/05/31 10:58:55;;;;;;;2.92;2.30;;;24.60;51.50;;;;;;4986677;28;20023;-83
2021/05/31 11:01:28;;;;;;;2.78;2.13;;;24.70;51.40;;;;;;4987895;28;20054;-87
2021/05/31 11:04:00;;;;;;;3.08;2.10;;;24.80;51.40;;;;;;4982948;28;20123;-82
2021/05/31 11:06:30;;;;;;;2.97;1.98;;;24.90;51.40;;;;;;4971999;28;20067;-85
2021/05/31 11:09:03;;;;;;;2.65;2.10;;;25.00;51.40;;;;;;4986032;28;20052;-80
2021/05/31 11:11:47;;;;;;;3.33;2.40;;;25.00;51.30;;;;;;4972226;28;20039;-87
2021/05/31 11:14:12;;;;;;;2.53;2.10;;;25.10;51.20;;;;;;4981498;28;20059;-83
2021/05/31 11:17:03;;;;;;;2.40;2.20;;;25.20;51.20;;;;;;4948951;28;20061;-79
2021/05/31 11:19:40;;;;;;;3.15;2.15;;;25.20;51.30;;;;;;4982923;28;20456;-80
2021/05/31 11:22:38;;;;;;;2.33;2.00;;;25.30;51.20;;;;;;4981245;28;20046;-81
2021/05/31 11:25:10;;;;;;;2.97;2.20;;;25.30;51.30;;;;;;4921059;28;20077;-86
2021/05/31 11:27:38;;;;;;;3.33;2.10;;;25.40;51.20;;;;;;4981822;28;20181;-90
2021/05/31 11:30:11;;;;;;;3.20;2.20;;;25.40;51.30;;;;;;4964477;28;20117;-88
2021/05/31 11:32:38;;;;;;;3.22;2.30;;;25.40;51.30;;;;;;4973382;28;20037;-90
2021/05/31 11:35:09;;;;;;;2.50;2.03;;;25.50;51.30;;;;;;4962144;28;20019;-86
2021/05/31 11:37:35;;;;;;;3.40;2.20;;;25.50;51.30;;;;;;4951882;28;20032;-84
2021/05/31 11:40:04;;;;;;;3.67;2.40;;;25.60;51.40;;;;;;4976048;28;20043;-85
2021/05/31 11:42:30;;;;;;;3.03;2.30;;;25.60;52.10;;;;;;4977699;28;20031;-85
2021/05/31 11:45:01;;;;;;;3.00;2.13;;;25.60;51.50;;;;;;4968812;28;20035;-88
2021/05/31 11:47:30;;;;;;;3.25;2.22;;;25.60;51.50;;;;;;4982475;28;20085;-91
2021/05/31 11:49:59;;;;;;;2.38;1.90;;;25.60;51.50;;;;;;4944837;28;20122;-85
2021/05/31 11:52:27;;;;;;;2.90;2.30;;;25.70;51.60;;;;;;4968123;28;20027;-85
2021/05/31 11:54:53;;;;;;;3.65;2.20;;;25.70;51.70;;;;;;4961421;28;20068;-84
2021/05/31 11:57:21;;;;;;;3.70;2.58;;;25.70;51.60;;;;;;4970222;28;20103;-85
2021/05/31 11:59:51;;;;;;;3.08;2.10;;;25.70;51.60;;;;;;4934277;28;20023;-82
2021/05/31 12:02:23;;;;;;;2.95;2.30;;;25.70;51.70;;;;;;4966508;28;20122;-82
2021/05/31 12:04:51;;;;;;;2.10;1.80;;;25.70;51.80;;;;;;4962156;28;20031;-83
2021/05/31 12:07:24;;;;;;;3.13;2.35;;;25.70;51.90;;;;;;4961830;28;20059;-85
2021/05/31 12:09:51;;;;;;;3.65;2.10;;;25.80;51.90;;;;;;4988156;28;20030;-85
2021/05/31 12:12:19;;;;;;;4.13;2.53;;;25.80;51.80;;;;;;4956082;28;20031;-84
2021/05/31 12:14:48;;;;;;;3.13;2.40;;;25.70;51.60;;;;;;4956932;28;20033;-85
2021/05/31 12:17:16;;;;;;;2.97;2.33;;;25.80;51.50;;;;;;4970418;28;20315;-83
2021/05/31 12:19:43;;;;;;;3.00;2.10;;;25.70;51.40;;;;;;4974462;28;20030;-84
2021/05/31 12:22:09;;;;;;;3.08;2.35;;;25.80;51.50;;;;;;4971713;28;20027;-83
2021/05/31 12:24:40;;;;;;;2.40;2.17;;;25.80;51.50;;;;;;4956060;28;20468;-83
2021/05/31 12:27:06;;;;;;;3.17;2.28;;;25.70;51.60;;;;;;4995454;28;20490;-83
2021/05/31 12:29:38;;;;;;;4.35;2.63;;;25.70;51.60;;;;;;4974448;28;20031;-84
2021/05/31 12:32:10;;;;;;;3.97;2.47;;;25.80;51.70;;;;;;4992369;28;20025;-84
2021/05/31 12:34:37;;;;;;;3.03;2.28;;;25.80;51.70;;;;;;4950061;28;20043;-85
2021/05/31 12:37:06;;;;;;;3.08;2.40;;;25.80;51.60;;;;;;4988413;28;20424;-88
2021/05/31 12:39:32;;;;;;;3.40;2.50;;;25.80;51.60;;;;;;4981616;28;20027;-85
2021/05/31 12:42:03;;;;;;;3.47;2.60;;;25.70;51.50;;;;;;4983043;28;20118;-84
2021/05/31 12:44:30;;;;;;;3.05;2.33;;;25.80;51.60;;;;;;4978477;28;20042;-91
2021/05/31 12:47:05;;;;;;;2.83;2.17;;;25.80;51.60;;;;;;4961390;28;20035;-87
2021/05/31 12:49:30;;;;;;;2.88;2.38;;;25.80;51.60;;;;;;4968963;28;20074;-87
2021/05/31 12:51:57;;;;;;;2.65;2.10;;;25.80;51.60;;;;;;4955118;28;20077;-86
2021/05/31 12:54:24;;;;;;;3.28;2.55;;;25.80;51.60;;;;;;4973746;28;20122;-87
2021/05/31 12:56:51;;;;;;;3.13;2.03;;;25.80;51.60;;;;;;4973806;28;20141;-86
2021/05/31 12:59:24;;;;;;;2.75;2.15;;;25.70;51.60;;;;;;4946836;28;20023;-86
2021/05/31 13:01:50;;;;;;;3.35;2.38;;;25.80;51.70;;;;;;4940427;28;20046;-85
2021/05/31 13:04:25;;;;;;;3.30;2.60;;;25.80;51.60;;;;;;4960864;28;20043;-86
2021/05/31 13:06:51;;;;;;;3.42;2.60;;;25.70;51.60;;;;;;4991498;28;20094;-85
2021/05/31 13:09:25;;;;;;;3.58;2.22;;;25.70;51.60;;;;;;4955952;28;20035;-86
2021/05/31 13:11:52;;;;;;;3.30;2.30;;;25.70;51.50;;;;;;4974896;28;20039;-85